sensor_id;sensor_type;location;lat;lon;timestamp;P1;durP1;ratioP1;P2;durP2;ratioP2
25299;SDS011;13241;51.208;4.432;2024-03-07T00:00:12;26.38;;;12.90;;
25299;SDS011;13241;51.208;4.432;2024-03-07T00:02:44;36.22;;;12.27;;
25299;SDS011;13241;51.208;4.432;2024-03-07T00:05:15;30.35;;;13.13;;
25299;SDS011;13241;51.208;4.432;2024-03-07T00:07:42;30.80;;;13.05;;
25299;SDS011;13241;51.208;4.432;2024-03-07T00:10:10;24.92;;;12.38;;
25299;SDS011;13241;51.208;4.432;2024-03-07T00:12:39;29.95;;;13.65;;
25299;SDS011;13241;51.208;4.432;2024-03-07T00:15:07;27.33;;;12.32;;
25299;SDS011;13241;51.208;4.432;2024-03-07T00:17:43;24.42;;;12.02;;
25299;SDS011;13241;51.208;4.432;2024-03-07T00:20:10;23.25;;;12.35;;
25299;SDS011;13241;51.208;4.432;2024-03-07T00:22:42;28.38;;;12.20;;
25299;SDS011;13241;51.208;4.432;2024-03-07T00:25:10;33.53;;;14.07;;
25299;SDS011;13241;51.208;4.432;2024-03-07T00:27:40;34.72;;;13.25;;
25299;SDS011;13241;51.208;4.432;2024-03-07T00:30:12;29.45;;;12.85;;
25299;SDS011;13241;51.208;4.432;2024-03-07T00:32:47;23.90;;;12.82;;
25299;SDS011;13241;51.208;4.432;2024-03-07T00:35:15;27.45;;;12.57;;
25299;SDS011;13241;51.208;4.432;2024-03-07T00:37:44;33.88;;;13.88;;
25299;SDS011;13241;51.208;4.432;2024-03-07T00:40:12;28.83;;;12.82;;
25299;SDS011;13241;51.208;4.432;2024-03-07T00:42:39;26.08;;;11.45;;
25299;SDS011;13241;51.208;4.432;2024-03-07T00:45:10;34.50;;;14.57;;
25299;SDS011;13241;51.208;4.432;2024-03-07T00:47:44;30.67;;;14.57;;
25299;SDS011;13241;51.208;4.432;2024-03-07T00:50:11;32.58;;;14.77;;
25299;SDS011;13241;51.208;4.432;2024-03-07T00:52:39;33.40;;;15.88;;
25299;SDS011;13241;51.208;4.432;2024-03-07T00:55:07;33.92;;;14.73;;
25299;SDS011;13241;51.208;4.432;2024-03-07T00:57:36;32.42;;;13.45;;
25299;SDS011;13241;51.208;4.432;2024-03-07T01:00:04;26.73;;;13.02;;
25299;SDS011;13241;51.208;4.432;2024-03-07T01:02:35;30.65;;;13.10;;
25299;SDS011;13241;51.208;4.432;2024-03-07T01:05:03;35.78;;;13.20;;
25299;SDS011;13241;51.208;4.432;2024-03-07T01:07:35;37.67;;;14.60;;
25299;SDS011;13241;51.208;4.432;2024-03-07T01:10:04;33.38;;;14.38;;
25299;SDS011;13241;51.208;4.432;2024-03-07T01:12:34;31.23;;;13.52;;
25299;SDS011;13241;51.208;4.432;2024-03-07T01:15:02;29.95;;;14.95;;
25299;SDS011;13241;51.208;4.432;2024-03-07T01:17:35;28.92;;;13.75;;
25299;SDS011;13241;51.208;4.432;2024-03-07T01:20:02;32.83;;;14.13;;
25299;SDS011;13241;51.208;4.432;2024-03-07T01:22:30;33.38;;;15.18;;
25299;SDS011;13241;51.208;4.432;2024-03-07T01:24:58;32.17;;;13.48;;
25299;SDS011;13241;51.208;4.432;2024-03-07T01:27:25;37.65;;;14.93;;
25299;SDS011;13241;51.208;4.432;2024-03-07T01:29:53;26.10;;;12.70;;
25299;SDS011;13241;51.208;4.432;2024-03-07T01:32:20;31.88;;;14.70;;
25299;SDS011;13241;51.208;4.432;2024-03-07T01:34:48;37.33;;;14.38;;
25299;SDS011;13241;51.208;4.432;2024-03-07T01:37:17;28.38;;;14.13;;
25299;SDS011;13241;51.208;4.432;2024-03-07T01:39:46;36.80;;;15.88;;
25299;SDS011;13241;51.208;4.432;2024-03-07T01:42:14;33.47;;;16.48;;
25299;SDS011;13241;51.208;4.432;2024-03-07T01:44:41;32.92;;;13.45;;
25299;SDS011;13241;51.208;4.432;2024-03-07T01:47:11;39.45;;;15.77;;
25299;SDS011;13241;51.208;4.432;2024-03-07T01:49:39;33.50;;;14.63;;
25299;SDS011;13241;51.208;4.432;2024-03-07T01:52:07;34.13;;;15.20;;
25299;SDS011;13241;51.208;4.432;2024-03-07T01:54:34;31.35;;;13.95;;
25299;SDS011;13241;51.208;4.432;2024-03-07T01:57:02;38.67;;;13.50;;
25299;SDS011;13241;51.208;4.432;2024-03-07T01:59:32;35.60;;;14.90;;
25299;SDS011;13241;51.208;4.432;2024-03-07T02:01:59;37.10;;;15.13;;
25299;SDS011;13241;51.208;4.432;2024-03-07T02:04:28;35.58;;;15.90;;
25299;SDS011;13241;51.208;4.432;2024-03-07T02:07:02;34.75;;;14.15;;
25299;SDS011;13241;51.208;4.432;2024-03-07T02:09:30;37.28;;;15.15;;
25299;SDS011;13241;51.208;4.432;2024-03-07T02:11:58;32.55;;;13.80;;
25299;SDS011;13241;51.208;4.432;2024-03-07T02:14:25;27.05;;;13.13;;
25299;SDS011;13241;51.208;4.432;2024-03-07T02:16:53;35.80;;;15.07;;
25299;SDS011;13241;51.208;4.432;2024-03-07T02:19:22;32.10;;;14.32;;
25299;SDS011;13241;51.208;4.432;2024-03-07T02:21:51;37.28;;;14.15;;
25299;SDS011;13241;51.208;4.432;2024-03-07T02:24:18;30.80;;;13.73;;
25299;SDS011;13241;51.208;4.432;2024-03-07T02:26:46;39.22;;;15.60;;
25299;SDS011;13241;51.208;4.432;2024-03-07T02:29:13;32.58;;;14.35;;
25299;SDS011;13241;51.208;4.432;2024-03-07T02:31:40;34.17;;;14.30;;
25299;SDS011;13241;51.208;4.432;2024-03-07T02:34:08;33.65;;;14.82;;
25299;SDS011;13241;51.208;4.432;2024-03-07T02:36:35;44.97;;;18.05;;
25299;SDS011;13241;51.208;4.432;2024-03-07T02:39:02;43.35;;;15.55;;
25299;SDS011;13241;51.208;4.432;2024-03-07T02:41:31;32.63;;;14.02;;
25299;SDS011;13241;51.208;4.432;2024-03-07T02:44:00;32.55;;;14.95;;
25299;SDS011;13241;51.208;4.432;2024-03-07T02:46:30;33.05;;;14.32;;
25299;SDS011;13241;51.208;4.432;2024-03-07T02:48:59;37.72;;;13.98;;
25299;SDS011;13241;51.208;4.432;2024-03-07T02:51:27;34.85;;;15.75;;
25299;SDS011;13241;51.208;4.432;2024-03-07T02:53:55;37.85;;;15.25;;
25299;SDS011;13241;51.208;4.432;2024-03-07T02:56:22;36.70;;;14.43;;
25299;SDS011;13241;51.208;4.432;2024-03-07T02:58:50;36.92;;;14.20;;
25299;SDS011;13241;51.208;4.432;2024-03-07T03:01:18;37.70;;;15.10;;
25299;SDS011;13241;51.208;4.432;2024-03-07T03:03:45;40.10;;;14.85;;
25299;SDS011;13241;51.208;4.432;2024-03-07T03:06:13;48.28;;;16.50;;
25299;SDS011;13241;51.208;4.432;2024-03-07T03:08:40;29.42;;;13.35;;
25299;SDS011;13241;51.208;4.432;2024-03-07T03:11:10;35.05;;;14.73;;
25299;SDS011;13241;51.208;4.432;2024-03-07T03:13:40;44.45;;;14.90;;
25299;SDS011;13241;51.208;4.432;2024-03-07T03:16:08;35.10;;;13.70;;
25299;SDS011;13241;51.208;4.432;2024-03-07T03:18:36;35.92;;;14.18;;
25299;SDS011;13241;51.208;4.432;2024-03-07T03:21:05;32.45;;;13.50;;
25299;SDS011;13241;51.208;4.432;2024-03-07T03:23:32;34.75;;;14.07;;
25299;SDS011;13241;51.208;4.432;2024-03-07T03:26:02;29.75;;;12.18;;
25299;SDS011;13241;51.208;4.432;2024-03-07T03:28:30;36.90;;;16.15;;
25299;SDS011;13241;51.208;4.432;2024-03-07T03:30:58;46.58;;;15.43;;
25299;SDS011;13241;51.208;4.432;2024-03-07T03:33:25;31.13;;;14.55;;
25299;SDS011;13241;51.208;4.432;2024-03-07T03:35:54;33.55;;;14.73;;
25299;SDS011;13241;51.208;4.432;2024-03-07T03:38:21;48.67;;;16.58;;
25299;SDS011;13241;51.208;4.432;2024-03-07T03:40:49;36.35;;;13.82;;
25299;SDS011;13241;51.208;4.432;2024-03-07T03:43:17;30.25;;;14.15;;
25299;SDS011;13241;51.208;4.432;2024-03-07T03:45:51;29.75;;;13.43;;
25299;SDS011;13241;51.208;4.432;2024-03-07T03:48:19;32.75;;;13.85;;
25299;SDS011;13241;51.208;4.432;2024-03-07T03:50:47;37.58;;;15.40;;
25299;SDS011;13241;51.208;4.432;2024-03-07T03:53:15;33.30;;;15.60;;
25299;SDS011;13241;51.208;4.432;2024-03-07T03:55:43;38.58;;;15.10;;
25299;SDS011;13241;51.208;4.432;2024-03-07T03:58:12;37.58;;;17.25;;
25299;SDS011;13241;51.208;4.432;2024-03-07T04:00:39;32.00;;;13.98;;
25299;SDS011;13241;51.208;4.432;2024-03-07T04:03:06;35.30;;;16.23;;
25299;SDS011;13241;51.208;4.432;2024-03-07T04:05:34;35.25;;;13.95;;
25299;SDS011;13241;51.208;4.432;2024-03-07T04:08:02;28.95;;;13.25;;
25299;SDS011;13241;51.208;4.432;2024-03-07T04:10:33;39.25;;;15.27;;
25299;SDS011;13241;51.208;4.432;2024-03-07T04:13:02;37.83;;;14.70;;
25299;SDS011;13241;51.208;4.432;2024-03-07T04:15:29;37.70;;;14.38;;
25299;SDS011;13241;51.208;4.432;2024-03-07T04:18:02;39.15;;;14.10;;
25299;SDS011;13241;51.208;4.432;2024-03-07T04:20:30;30.40;;;14.35;;
25299;SDS011;13241;51.208;4.432;2024-03-07T04:22:57;34.10;;;15.50;;
25299;SDS011;13241;51.208;4.432;2024-03-07T04:25:29;42.80;;;14.18;;
25299;SDS011;13241;51.208;4.432;2024-03-07T04:28:00;37.80;;;15.65;;
25299;SDS011;13241;51.208;4.432;2024-03-07T04:30:28;35.95;;;16.42;;
25299;SDS011;13241;51.208;4.432;2024-03-07T04:32:56;34.53;;;14.75;;
25299;SDS011;13241;51.208;4.432;2024-03-07T04:35:25;35.28;;;13.63;;
25299;SDS011;13241;51.208;4.432;2024-03-07T04:37:52;36.22;;;14.50;;
25299;SDS011;13241;51.208;4.432;2024-03-07T04:40:20;38.00;;;13.10;;
25299;SDS011;13241;51.208;4.432;2024-03-07T04:42:52;34.97;;;13.95;;
25299;SDS011;13241;51.208;4.432;2024-03-07T04:45:23;39.85;;;14.10;;
25299;SDS011;13241;51.208;4.432;2024-03-07T04:47:53;41.50;;;16.75;;
25299;SDS011;13241;51.208;4.432;2024-03-07T04:50:22;35.10;;;15.27;;
25299;SDS011;13241;51.208;4.432;2024-03-07T04:52:52;35.67;;;13.32;;
25299;SDS011;13241;51.208;4.432;2024-03-07T04:55:20;32.35;;;15.52;;
25299;SDS011;13241;51.208;4.432;2024-03-07T04:57:51;41.00;;;15.40;;
25299;SDS011;13241;51.208;4.432;2024-03-07T05:00:18;28.08;;;15.88;;
25299;SDS011;13241;51.208;4.432;2024-03-07T05:02:48;33.85;;;14.70;;
25299;SDS011;13241;51.208;4.432;2024-03-07T05:05:21;36.60;;;16.00;;
25299;SDS011;13241;51.208;4.432;2024-03-07T05:07:53;34.15;;;14.38;;
25299;SDS011;13241;51.208;4.432;2024-03-07T05:10:26;28.88;;;15.05;;
25299;SDS011;13241;51.208;4.432;2024-03-07T05:12:56;35.13;;;16.75;;
25299;SDS011;13241;51.208;4.432;2024-03-07T05:15:25;42.10;;;17.27;;
25299;SDS011;13241;51.208;4.432;2024-03-07T05:17:52;39.38;;;17.20;;
25299;SDS011;13241;51.208;4.432;2024-03-07T05:20:24;33.97;;;15.95;;
25299;SDS011;13241;51.208;4.432;2024-03-07T05:22:52;35.33;;;15.85;;
25299;SDS011;13241;51.208;4.432;2024-03-07T05:25:20;35.67;;;14.88;;
25299;SDS011;13241;51.208;4.432;2024-03-07T05:27:48;41.28;;;16.75;;
25299;SDS011;13241;51.208;4.432;2024-03-07T05:30:17;31.33;;;14.27;;
25299;SDS011;13241;51.208;4.432;2024-03-07T05:32:44;38.08;;;16.55;;
25299;SDS011;13241;51.208;4.432;2024-03-07T05:35:12;42.58;;;17.80;;
25299;SDS011;13241;51.208;4.432;2024-03-07T05:37:40;40.20;;;16.80;;
25299;SDS011;13241;51.208;4.432;2024-03-07T05:40:08;49.10;;;20.42;;
25299;SDS011;13241;51.208;4.432;2024-03-07T05:42:36;51.03;;;16.05;;
25299;SDS011;13241;51.208;4.432;2024-03-07T05:45:09;55.13;;;19.13;;
25299;SDS011;13241;51.208;4.432;2024-03-07T05:47:38;55.25;;;19.20;;
25299;SDS011;13241;51.208;4.432;2024-03-07T05:50:05;57.50;;;19.10;;
25299;SDS011;13241;51.208;4.432;2024-03-07T05:52:34;63.05;;;18.33;;
25299;SDS011;13241;51.208;4.432;2024-03-07T05:55:01;57.05;;;18.48;;
25299;SDS011;13241;51.208;4.432;2024-03-07T05:57:29;63.92;;;18.23;;
25299;SDS011;13241;51.208;4.432;2024-03-07T05:59:56;60.17;;;19.30;;
25299;SDS011;13241;51.208;4.432;2024-03-07T06:02:25;59.17;;;18.85;;
25299;SDS011;13241;51.208;4.432;2024-03-07T06:04:54;45.50;;;17.10;;
25299;SDS011;13241;51.208;4.432;2024-03-07T06:07:22;47.30;;;17.10;;
25299;SDS011;13241;51.208;4.432;2024-03-07T06:09:51;47.67;;;18.10;;
25299;SDS011;13241;51.208;4.432;2024-03-07T06:12:18;63.20;;;19.98;;
25299;SDS011;13241;51.208;4.432;2024-03-07T06:14:53;48.35;;;19.23;;
25299;SDS011;13241;51.208;4.432;2024-03-07T06:17:21;52.65;;;19.00;;
25299;SDS011;13241;51.208;4.432;2024-03-07T06:19:49;47.15;;;18.92;;
25299;SDS011;13241;51.208;4.432;2024-03-07T06:22:17;49.08;;;17.60;;
25299;SDS011;13241;51.208;4.432;2024-03-07T06:24:45;56.58;;;19.63;;
25299;SDS011;13241;51.208;4.432;2024-03-07T06:27:12;46.38;;;17.52;;
25299;SDS011;13241;51.208;4.432;2024-03-07T06:29:53;57.53;;;20.85;;
25299;SDS011;13241;51.208;4.432;2024-03-07T06:32:21;66.20;;;20.80;;
25299;SDS011;13241;51.208;4.432;2024-03-07T06:34:49;60.65;;;18.50;;
25299;SDS011;13241;51.208;4.432;2024-03-07T06:37:16;55.88;;;21.05;;
25299;SDS011;13241;51.208;4.432;2024-03-07T06:39:45;62.45;;;18.80;;
25299;SDS011;13241;51.208;4.432;2024-03-07T06:42:13;55.83;;;20.70;;
25299;SDS011;13241;51.208;4.432;2024-03-07T06:44:42;61.97;;;18.70;;
25299;SDS011;13241;51.208;4.432;2024-03-07T06:47:10;53.58;;;20.50;;
25299;SDS011;13241;51.208;4.432;2024-03-07T06:49:43;49.97;;;18.42;;
25299;SDS011;13241;51.208;4.432;2024-03-07T06:52:12;46.78;;;18.25;;
25299;SDS011;13241;51.208;4.432;2024-03-07T06:54:43;47.35;;;17.90;;
25299;SDS011;13241;51.208;4.432;2024-03-07T06:57:17;47.72;;;17.95;;
25299;SDS011;13241;51.208;4.432;2024-03-07T06:59:45;53.40;;;19.13;;
25299;SDS011;13241;51.208;4.432;2024-03-07T07:02:13;50.47;;;17.70;;
25299;SDS011;13241;51.208;4.432;2024-03-07T07:04:41;53.53;;;18.55;;
25299;SDS011;13241;51.208;4.432;2024-03-07T07:07:30;47.00;;;16.60;;
25299;SDS011;13241;51.208;4.432;2024-03-07T07:10:01;50.25;;;19.15;;
25299;SDS011;13241;51.208;4.432;2024-03-07T07:12:38;46.78;;;18.00;;
25299;SDS011;13241;51.208;4.432;2024-03-07T07:15:07;56.95;;;19.00;;
25299;SDS011;13241;51.208;4.432;2024-03-07T07:17:35;46.67;;;17.52;;
25299;SDS011;13241;51.208;4.432;2024-03-07T07:20:04;49.63;;;21.98;;
25299;SDS011;13241;51.208;4.432;2024-03-07T07:22:36;37.03;;;16.30;;
25299;SDS011;13241;51.208;4.432;2024-03-07T07:25:05;44.47;;;17.20;;
25299;SDS011;13241;51.208;4.432;2024-03-07T07:27:43;51.47;;;18.95;;
25299;SDS011;13241;51.208;4.432;2024-03-07T07:30:12;51.58;;;17.35;;
25299;SDS011;13241;51.208;4.432;2024-03-07T07:32:41;36.72;;;14.85;;
25299;SDS011;13241;51.208;4.432;2024-03-07T07:35:09;45.60;;;18.13;;
25299;SDS011;13241;51.208;4.432;2024-03-07T07:37:42;61.75;;;20.75;;
25299;SDS011;13241;51.208;4.432;2024-03-07T07:40:11;49.78;;;20.52;;
25299;SDS011;13241;51.208;4.432;2024-03-07T07:42:41;51.08;;;21.35;;
25299;SDS011;13241;51.208;4.432;2024-03-07T07:45:09;41.00;;;17.33;;
25299;SDS011;13241;51.208;4.432;2024-03-07T07:47:38;49.88;;;17.90;;
25299;SDS011;13241;51.208;4.432;2024-03-07T07:50:11;41.55;;;18.88;;
25299;SDS011;13241;51.208;4.432;2024-03-07T07:52:45;50.80;;;20.30;;
25299;SDS011;13241;51.208;4.432;2024-03-07T07:55:14;56.78;;;20.38;;
25299;SDS011;13241;51.208;4.432;2024-03-07T07:57:42;42.45;;;18.48;;
25299;SDS011;13241;51.208;4.432;2024-03-07T08:00:13;42.72;;;17.55;;
25299;SDS011;13241;51.208;4.432;2024-03-07T08:02:51;47.05;;;20.23;;
25299;SDS011;13241;51.208;4.432;2024-03-07T08:05:19;42.45;;;18.08;;
25299;SDS011;13241;51.208;4.432;2024-03-07T08:07:53;40.42;;;16.13;;
25299;SDS011;13241;51.208;4.432;2024-03-07T08:10:21;41.53;;;16.17;;
25299;SDS011;13241;51.208;4.432;2024-03-07T08:12:52;49.22;;;16.98;;
25299;SDS011;13241;51.208;4.432;2024-03-07T08:15:19;43.33;;;15.98;;
25299;SDS011;13241;51.208;4.432;2024-03-07T08:17:47;37.70;;;17.20;;
25299;SDS011;13241;51.208;4.432;2024-03-07T08:20:18;37.70;;;16.15;;
25299;SDS011;13241;51.208;4.432;2024-03-07T08:22:49;39.40;;;16.17;;
25299;SDS011;13241;51.208;4.432;2024-03-07T08:25:24;39.58;;;16.50;;
25299;SDS011;13241;51.208;4.432;2024-03-07T08:27:56;34.60;;;14.77;;
25299;SDS011;13241;51.208;4.432;2024-03-07T08:30:24;39.05;;;16.58;;
25299;SDS011;13241;51.208;4.432;2024-03-07T08:32:56;36.67;;;14.77;;
25299;SDS011;13241;51.208;4.432;2024-03-07T08:35:25;30.80;;;14.23;;
25299;SDS011;13241;51.208;4.432;2024-03-07T08:37:55;38.60;;;14.23;;
25299;SDS011;13241;51.208;4.432;2024-03-07T08:40:28;41.05;;;17.20;;
25299;SDS011;13241;51.208;4.432;2024-03-07T08:43:00;34.22;;;15.23;;
25299;SDS011;13241;51.208;4.432;2024-03-07T08:45:28;35.03;;;15.73;;
25299;SDS011;13241;51.208;4.432;2024-03-07T08:48:02;36.53;;;16.43;;
25299;SDS011;13241;51.208;4.432;2024-03-07T08:50:36;34.25;;;15.50;;
25299;SDS011;13241;51.208;4.432;2024-03-07T08:53:04;43.58;;;19.05;;
25299;SDS011;13241;51.208;4.432;2024-03-07T08:55:32;29.95;;;13.55;;
25299;SDS011;13241;51.208;4.432;2024-03-07T08:57:59;40.03;;;16.42;;
25299;SDS011;13241;51.208;4.432;2024-03-07T09:00:26;33.92;;;15.95;;
25299;SDS011;13241;51.208;4.432;2024-03-07T09:02:55;26.70;;;13.50;;
25299;SDS011;13241;51.208;4.432;2024-03-07T09:05:30;32.42;;;16.00;;
25299;SDS011;13241;51.208;4.432;2024-03-07T09:08:00;29.33;;;13.75;;
25299;SDS011;13241;51.208;4.432;2024-03-07T09:10:28;30.33;;;14.70;;
25299;SDS011;13241;51.208;4.432;2024-03-07T09:12:59;35.00;;;16.10;;
25299;SDS011;13241;51.208;4.432;2024-03-07T09:15:26;38.47;;;14.18;;
25299;SDS011;13241;51.208;4.432;2024-03-07T09:17:54;34.22;;;14.45;;
25299;SDS011;13241;51.208;4.432;2024-03-07T09:20:22;35.80;;;15.18;;
25299;SDS011;13241;51.208;4.432;2024-03-07T09:22:50;34.60;;;15.70;;
25299;SDS011;13241;51.208;4.432;2024-03-07T09:25:21;34.88;;;13.07;;
25299;SDS011;13241;51.208;4.432;2024-03-07T09:27:50;28.30;;;14.02;;
25299;SDS011;13241;51.208;4.432;2024-03-07T09:30:17;34.58;;;14.45;;
25299;SDS011;13241;51.208;4.432;2024-03-07T09:32:51;28.20;;;12.25;;
25299;SDS011;13241;51.208;4.432;2024-03-07T09:35:21;24.88;;;12.05;;
25299;SDS011;13241;51.208;4.432;2024-03-07T09:37:52;26.70;;;13.00;;
25299;SDS011;13241;51.208;4.432;2024-03-07T09:40:20;29.55;;;12.68;;
25299;SDS011;13241;51.208;4.432;2024-03-07T09:42:56;30.70;;;12.77;;
25299;SDS011;13241;51.208;4.432;2024-03-07T09:45:28;25.73;;;11.77;;
25299;SDS011;13241;51.208;4.432;2024-03-07T09:47:56;32.67;;;13.23;;
25299;SDS011;13241;51.208;4.432;2024-03-07T09:50:24;27.55;;;12.88;;
25299;SDS011;13241;51.208;4.432;2024-03-07T09:52:54;27.15;;;10.98;;
25299;SDS011;13241;51.208;4.432;2024-03-07T09:55:22;25.80;;;12.48;;
25299;SDS011;13241;51.208;4.432;2024-03-07T09:57:52;24.10;;;10.98;;
25299;SDS011;13241;51.208;4.432;2024-03-07T10:00:22;29.30;;;12.05;;
25299;SDS011;13241;51.208;4.432;2024-03-07T10:02:56;29.10;;;11.25;;
25299;SDS011;13241;51.208;4.432;2024-03-07T10:05:26;23.58;;;12.13;;
25299;SDS011;13241;51.208;4.432;2024-03-07T10:07:53;27.90;;;10.90;;
25299;SDS011;13241;51.208;4.432;2024-03-07T10:10:21;18.77;;;9.30;;
25299;SDS011;13241;51.208;4.432;2024-03-07T10:12:49;25.80;;;10.35;;
25299;SDS011;13241;51.208;4.432;2024-03-07T10:15:19;20.60;;;11.23;;
25299;SDS011;13241;51.208;4.432;2024-03-07T10:17:51;30.73;;;10.98;;
25299;SDS011;13241;51.208;4.432;2024-03-07T10:20:20;22.23;;;10.23;;
25299;SDS011;13241;51.208;4.432;2024-03-07T10:22:50;16.85;;;9.02;;
25299;SDS011;13241;51.208;4.432;2024-03-07T10:25:17;25.98;;;10.23;;
25299;SDS011;13241;51.208;4.432;2024-03-07T10:27:46;24.08;;;10.55;;
25299;SDS011;13241;51.208;4.432;2024-03-07T10:30:16;22.30;;;9.23;;
25299;SDS011;13241;51.208;4.432;2024-03-07T10:32:48;19.30;;;9.68;;
25299;SDS011;13241;51.208;4.432;2024-03-07T10:35:20;25.48;;;10.15;;
25299;SDS011;13241;51.208;4.432;2024-03-07T10:37:55;26.73;;;9.43;;
25299;SDS011;13241;51.208;4.432;2024-03-07T10:42:56;18.58;;;10.27;;
25299;SDS011;13241;51.208;4.432;2024-03-07T10:45:24;17.65;;;8.65;;
25299;SDS011;13241;51.208;4.432;2024-03-07T10:47:57;20.60;;;9.05;;
25299;SDS011;13241;51.208;4.432;2024-03-07T11:01:03;26.80;;;8.77;;
25299;SDS011;13241;51.208;4.432;2024-03-07T11:03:37;19.08;;;9.52;;
25299;SDS011;13241;51.208;4.432;2024-03-07T11:06:05;26.90;;;11.55;;
25299;SDS011;13241;51.208;4.432;2024-03-07T11:08:37;22.35;;;9.60;;
25299;SDS011;13241;51.208;4.432;2024-03-07T11:11:05;17.58;;;8.85;;
25299;SDS011;13241;51.208;4.432;2024-03-07T11:13:33;23.75;;;9.93;;
25299;SDS011;13241;51.208;4.432;2024-03-07T11:16:01;23.45;;;9.77;;
25299;SDS011;13241;51.208;4.432;2024-03-07T11:18:29;22.73;;;8.32;;
25299;SDS011;13241;51.208;4.432;2024-03-07T11:20:57;17.48;;;9.07;;
25299;SDS011;13241;51.208;4.432;2024-03-07T11:23:25;21.38;;;9.23;;
25299;SDS011;13241;51.208;4.432;2024-03-07T11:26:01;17.35;;;8.38;;
25299;SDS011;13241;51.208;4.432;2024-03-07T11:28:31;23.10;;;9.57;;
25299;SDS011;13241;51.208;4.432;2024-03-07T11:33:38;16.90;;;9.60;;
25299;SDS011;13241;51.208;4.432;2024-03-07T11:36:07;15.45;;;9.10;;
25299;SDS011;13241;51.208;4.432;2024-03-07T11:38:36;25.30;;;9.85;;
25299;SDS011;13241;51.208;4.432;2024-03-07T11:41:04;22.25;;;10.50;;
25299;SDS011;13241;51.208;4.432;2024-03-07T11:43:32;27.98;;;11.38;;
25299;SDS011;13241;51.208;4.432;2024-03-07T11:45:59;23.30;;;9.88;;
25299;SDS011;13241;51.208;4.432;2024-03-07T11:48:26;24.60;;;10.02;;
25299;SDS011;13241;51.208;4.432;2024-03-07T11:50:54;23.25;;;10.68;;
25299;SDS011;13241;51.208;4.432;2024-03-07T11:53:22;28.83;;;11.80;;
25299;SDS011;13241;51.208;4.432;2024-03-07T11:55:50;24.10;;;11.43;;
25299;SDS011;13241;51.208;4.432;2024-03-07T11:58:21;24.67;;;12.07;;
25299;SDS011;13241;51.208;4.432;2024-03-07T12:00:50;30.10;;;12.82;;
25299;SDS011;13241;51.208;4.432;2024-03-07T12:03:18;25.38;;;12.63;;
25299;SDS011;13241;51.208;4.432;2024-03-07T12:05:52;29.30;;;14.05;;
25299;SDS011;13241;51.208;4.432;2024-03-07T12:08:20;25.92;;;13.48;;
25299;SDS011;13241;51.208;4.432;2024-03-07T12:10:50;29.70;;;13.02;;
25299;SDS011;13241;51.208;4.432;2024-03-07T12:13:22;22.83;;;12.82;;
25299;SDS011;13241;51.208;4.432;2024-03-07T12:15:51;23.77;;;13.98;;
25299;SDS011;13241;51.208;4.432;2024-03-07T12:18:18;36.75;;;16.10;;
25299;SDS011;13241;51.208;4.432;2024-03-07T12:20:47;28.77;;;14.48;;
25299;SDS011;13241;51.208;4.432;2024-03-07T12:23:24;27.13;;;14.00;;
25299;SDS011;13241;51.208;4.432;2024-03-07T12:26:02;25.00;;;13.02;;
25299;SDS011;13241;51.208;4.432;2024-03-07T12:28:30;32.90;;;13.15;;
25299;SDS011;13241;51.208;4.432;2024-03-07T12:31:02;29.52;;;14.40;;
25299;SDS011;13241;51.208;4.432;2024-03-07T12:33:30;32.92;;;13.88;;
25299;SDS011;13241;51.208;4.432;2024-03-07T12:36:05;20.23;;;11.52;;
25299;SDS011;13241;51.208;4.432;2024-03-07T12:38:34;26.25;;;12.80;;
25299;SDS011;13241;51.208;4.432;2024-03-07T12:41:04;30.83;;;14.55;;
25299;SDS011;13241;51.208;4.432;2024-03-07T12:43:33;33.03;;;13.38;;
25299;SDS011;13241;51.208;4.432;2024-03-07T12:46:01;26.27;;;12.75;;
25299;SDS011;13241;51.208;4.432;2024-03-07T12:48:31;30.10;;;13.65;;
25299;SDS011;13241;51.208;4.432;2024-03-07T12:50:58;24.40;;;12.68;;
25299;SDS011;13241;51.208;4.432;2024-03-07T12:53:29;21.15;;;12.38;;
25299;SDS011;13241;51.208;4.432;2024-03-07T12:55:58;26.80;;;13.80;;
25299;SDS011;13241;51.208;4.432;2024-03-07T12:58:25;25.75;;;12.80;;
25299;SDS011;13241;51.208;4.432;2024-03-07T13:00:53;29.30;;;13.73;;
25299;SDS011;13241;51.208;4.432;2024-03-07T13:03:24;24.92;;;13.45;;
25299;SDS011;13241;51.208;4.432;2024-03-07T13:05:57;21.70;;;11.07;;
25299;SDS011;13241;51.208;4.432;2024-03-07T13:08:29;26.30;;;12.32;;
25299;SDS011;13241;51.208;4.432;2024-03-07T13:10:56;27.85;;;14.15;;
25299;SDS011;13241;51.208;4.432;2024-03-07T13:13:26;22.85;;;11.73;;
25299;SDS011;13241;51.208;4.432;2024-03-07T13:15:53;24.25;;;11.65;;
25299;SDS011;13241;51.208;4.432;2024-03-07T13:18:22;28.85;;;11.35;;
25299;SDS011;13241;51.208;4.432;2024-03-07T13:20:50;26.63;;;13.13;;
25299;SDS011;13241;51.208;4.432;2024-03-07T13:23:17;24.77;;;12.35;;
25299;SDS011;13241;51.208;4.432;2024-03-07T13:25:45;24.65;;;11.73;;
25299;SDS011;13241;51.208;4.432;2024-03-07T13:28:14;28.83;;;13.77;;
25299;SDS011;13241;51.208;4.432;2024-03-07T13:30:44;29.92;;;12.68;;
25299;SDS011;13241;51.208;4.432;2024-03-07T13:33:16;22.35;;;10.82;;
25299;SDS011;13241;51.208;4.432;2024-03-07T13:35:44;22.70;;;9.57;;
25299;SDS011;13241;51.208;4.432;2024-03-07T13:38:12;16.98;;;8.82;;
25299;SDS011;13241;51.208;4.432;2024-03-07T13:40:39;25.83;;;9.98;;
25299;SDS011;13241;51.208;4.432;2024-03-07T13:43:07;21.60;;;10.07;;
25299;SDS011;13241;51.208;4.432;2024-03-07T13:45:35;17.73;;;8.80;;
25299;SDS011;13241;51.208;4.432;2024-03-07T13:48:07;16.25;;;8.75;;
25299;SDS011;13241;51.208;4.432;2024-03-07T13:50:36;21.15;;;10.00;;
25299;SDS011;13241;51.208;4.432;2024-03-07T13:53:26;21.20;;;9.60;;
25299;SDS011;13241;51.208;4.432;2024-03-07T14:06:31;16.67;;;9.02;;
25299;SDS011;13241;51.208;4.432;2024-03-07T14:30:53;14.43;;;7.95;;
25299;SDS011;13241;51.208;4.432;2024-03-07T14:33:31;16.27;;;8.38;;
25299;SDS011;13241;51.208;4.432;2024-03-07T14:39:13;17.05;;;7.75;;
25299;SDS011;13241;51.208;4.432;2024-03-07T14:41:20;17.52;;;7.57;;
25299;SDS011;13241;51.208;4.432;2024-03-07T14:43:50;17.67;;;8.53;;
25299;SDS011;13241;51.208;4.432;2024-03-07T14:46:17;13.77;;;7.20;;
25299;SDS011;13241;51.208;4.432;2024-03-07T14:48:46;14.73;;;7.60;;
25299;SDS011;13241;51.208;4.432;2024-03-07T14:51:13;16.45;;;6.95;;
25299;SDS011;13241;51.208;4.432;2024-03-07T14:53:42;15.60;;;7.50;;
25299;SDS011;13241;51.208;4.432;2024-03-07T14:56:10;17.52;;;7.53;;
25299;SDS011;13241;51.208;4.432;2024-03-07T14:58:38;18.02;;;8.13;;
25299;SDS011;13241;51.208;4.432;2024-03-07T15:01:06;15.73;;;6.85;;
25299;SDS011;13241;51.208;4.432;2024-03-07T15:03:34;12.00;;;6.65;;
25299;SDS011;13241;51.208;4.432;2024-03-07T15:06:01;15.88;;;7.32;;
25299;SDS011;13241;51.208;4.432;2024-03-07T15:08:30;14.75;;;7.72;;
25299;SDS011;13241;51.208;4.432;2024-03-07T15:11:05;15.57;;;6.93;;
25299;SDS011;13241;51.208;4.432;2024-03-07T15:13:39;14.77;;;7.43;;
25299;SDS011;13241;51.208;4.432;2024-03-07T15:16:06;15.45;;;7.70;;
25299;SDS011;13241;51.208;4.432;2024-03-07T15:18:41;18.67;;;7.88;;
25299;SDS011;13241;51.208;4.432;2024-03-07T15:21:09;11.55;;;6.75;;
25299;SDS011;13241;51.208;4.432;2024-03-07T15:23:46;15.48;;;6.57;;
25299;SDS011;13241;51.208;4.432;2024-03-07T15:26:14;31.00;;;7.75;;